sensor_id;sensor_type;location;lat;lon;timestamp;P1;durP1;ratioP1;P2;durP2;ratioP2
83732;SDS011;73710;49.968;8.338;2024-01-30T05:06:52;7.53;;;6.18;;
83732;SDS011;73710;49.968;8.338;2024-01-30T05:09:18;17.67;;;8.80;;
83732;SDS011;73710;49.968;8.338;2024-01-30T05:11:44;11.55;;;6.13;;
83732;SDS011;73710;49.968;8.338;2024-01-30T05:14:09;13.45;;;7.25;;
83732;SDS011;73710;49.968;8.338;2024-01-30T05:16:36;11.07;;;6.22;;
83732;SDS011;73710;49.968;8.338;2024-01-30T05:19:02;19.50;;;8.70;;
83732;SDS011;73710;49.968;8.338;2024-01-30T05:21:27;15.63;;;7.25;;
83732;SDS011;73710;49.968;8.338;2024-01-30T05:23:52;14.53;;;8.67;;
83732;SDS011;73710;49.968;8.338;2024-01-30T05:26:18;13.70;;;7.13;;
83732;SDS011;73710;49.968;8.338;2024-01-30T05:28:43;11.52;;;8.95;;
83732;SDS011;73710;49.968;8.338;2024-01-30T05:31:13;16.85;;;7.30;;
83732;SDS011;73710;49.968;8.338;2024-01-30T05:33:38;18.03;;;9.10;;
83732;SDS011;73710;49.968;8.338;2024-01-30T05:36:03;11.68;;;8.70;;
83732;SDS011;73710;49.968;8.338;2024-01-30T05:38:29;17.63;;;7.72;;
83732;SDS011;73710;49.968;8.338;2024-01-30T05:40:55;19.00;;;6.38;;
83732;SDS011;73710;49.968;8.338;2024-01-30T05:43:21;10.43;;;6.78;;
83732;SDS011;73710;49.968;8.338;2024-01-30T05:45:46;16.83;;;8.07;;
83732;SDS011;73710;49.968;8.338;2024-01-30T05:48:11;12.05;;;8.38;;
83732;SDS011;73710;49.968;8.338;2024-01-30T05:50:37;28.30;;;8.13;;
83732;SDS011;73710;49.968;8.338;2024-01-30T05:53:02;17.38;;;9.15;;
83732;SDS011;73710;49.968;8.338;2024-01-30T05:55:27;13.02;;;7.28;;
83732;SDS011;73710;49.968;8.338;2024-01-30T05:57:53;13.50;;;9.07;;
83732;SDS011;73710;49.968;8.338;2024-01-30T06:00:18;16.15;;;8.38;;
83732;SDS011;73710;49.968;8.338;2024-01-30T06:02:44;14.43;;;7.68;;
83732;SDS011;73710;49.968;8.338;2024-01-30T06:05:09;12.73;;;9.23;;
83732;SDS011;73710;49.968;8.338;2024-01-30T06:07:34;12.00;;;6.78;;
83732;SDS011;73710;49.968;8.338;2024-01-30T06:10:00;26.50;;;10.60;;
83732;SDS011;73710;49.968;8.338;2024-01-30T06:12:27;16.80;;;8.40;;
83732;SDS011;73710;49.968;8.338;2024-01-30T06:14:53;17.45;;;9.85;;
83732;SDS011;73710;49.968;8.338;2024-01-30T06:17:21;17.58;;;11.07;;
83732;SDS011;73710;49.968;8.338;2024-01-30T06:19:47;17.80;;;9.95;;
83732;SDS011;73710;49.968;8.338;2024-01-30T06:22:12;29.05;;;9.73;;
83732;SDS011;73710;49.968;8.338;2024-01-30T06:24:37;21.13;;;10.27;;
83732;SDS011;73710;49.968;8.338;2024-01-30T06:27:03;16.57;;;10.90;;
83732;SDS011;73710;49.968;8.338;2024-01-30T06:29:29;17.95;;;9.73;;
83732;SDS011;73710;49.968;8.338;2024-01-30T06:31:54;17.00;;;11.95;;
83732;SDS011;73710;49.968;8.338;2024-01-30T06:34:20;18.90;;;9.20;;
83732;SDS011;73710;49.968;8.338;2024-01-30T06:36:45;17.45;;;9.82;;
83732;SDS011;73710;49.968;8.338;2024-01-30T06:39:10;18.00;;;11.53;;
83732;SDS011;73710;49.968;8.338;2024-01-30T06:41:36;25.02;;;12.35;;
83732;SDS011;73710;49.968;8.338;2024-01-30T06:44:02;22.87;;;9.47;;
83732;SDS011;73710;49.968;8.338;2024-01-30T06:46:29;12.77;;;7.60;;
83732;SDS011;73710;49.968;8.338;2024-01-30T06:48:54;10.55;;;6.72;;
83732;SDS011;73710;49.968;8.338;2024-01-30T06:51:19;19.47;;;8.80;;
83732;SDS011;73710;49.968;8.338;2024-01-30T06:53:45;16.13;;;9.38;;
83732;SDS011;73710;49.968;8.338;2024-01-30T06:56:10;13.13;;;8.15;;
83732;SDS011;73710;49.968;8.338;2024-01-30T06:58:36;10.55;;;8.18;;
83732;SDS011;73710;49.968;8.338;2024-01-30T07:01:01;10.50;;;6.85;;
83732;SDS011;73710;49.968;8.338;2024-01-30T07:03:29;17.58;;;9.32;;
83732;SDS011;73710;49.968;8.338;2024-01-30T07:05:55;20.23;;;8.70;;
83732;SDS011;73710;49.968;8.338;2024-01-30T07:08:20;15.45;;;8.77;;
83732;SDS011;73710;49.968;8.338;2024-01-30T07:10:46;24.97;;;6.80;;
83732;SDS011;73710;49.968;8.338;2024-01-30T07:13:11;15.10;;;8.40;;
83732;SDS011;73710;49.968;8.338;2024-01-30T07:15:37;10.23;;;7.38;;
83732;SDS011;73710;49.968;8.338;2024-01-30T07:18:03;15.70;;;7.47;;
83732;SDS011;73710;49.968;8.338;2024-01-30T07:20:30;13.90;;;9.23;;
83732;SDS011;73710;49.968;8.338;2024-01-30T07:22:57;18.55;;;6.50;;
83732;SDS011;73710;49.968;8.338;2024-01-30T07:25:23;15.80;;;8.82;;
83732;SDS011;73710;49.968;8.338;2024-01-30T07:27:52;12.65;;;8.48;;
83732;SDS011;73710;49.968;8.338;2024-01-30T07:30:20;24.85;;;9.75;;
83732;SDS011;73710;49.968;8.338;2024-01-30T07:32:46;20.42;;;9.57;;
83732;SDS011;73710;49.968;8.338;2024-01-30T07:35:12;14.95;;;10.57;;
83732;SDS011;73710;49.968;8.338;2024-01-30T07:37:37;19.95;;;9.32;;
83732;SDS011;73710;49.968;8.338;2024-01-30T07:40:03;19.98;;;10.65;;
83732;SDS011;73710;49.968;8.338;2024-01-30T07:42:29;26.75;;;13.00;;
83732;SDS011;73710;49.968;8.338;2024-01-30T07:44:54;18.55;;;9.60;;
83732;SDS011;73710;49.968;8.338;2024-01-30T07:47:19;15.77;;;10.75;;
83732;SDS011;73710;49.968;8.338;2024-01-30T07:49:45;10.35;;;7.45;;
83732;SDS011;73710;49.968;8.338;2024-01-30T07:52:10;10.90;;;7.90;;
83732;SDS011;73710;49.968;8.338;2024-01-30T07:54:39;14.38;;;9.40;;
83732;SDS011;73710;49.968;8.338;2024-01-30T08:03:53;13.73;;;9.18;;
83732;SDS011;73710;49.968;8.338;2024-01-30T08:06:18;12.90;;;8.50;;
83732;SDS011;73710;49.968;8.338;2024-01-30T08:08:44;25.23;;;15.00;;
83732;SDS011;73710;49.968;8.338;2024-01-30T08:11:10;16.60;;;10.05;;
83732;SDS011;73710;49.968;8.338;2024-01-30T08:13:35;15.10;;;10.48;;
83732;SDS011;73710;49.968;8.338;2024-01-30T08:16:00;14.90;;;10.00;;
83732;SDS011;73710;49.968;8.338;2024-01-30T08:18:26;21.65;;;11.27;;
83732;SDS011;73710;49.968;8.338;2024-01-30T08:20:51;25.02;;;10.65;;
83732;SDS011;73710;49.968;8.338;2024-01-30T08:23:17;22.17;;;11.07;;
83732;SDS011;73710;49.968;8.338;2024-01-30T08:25:42;20.90;;;11.52;;
83732;SDS011;73710;49.968;8.338;2024-01-30T08:28:08;18.35;;;9.80;;
83732;SDS011;73710;49.968;8.338;2024-01-30T08:30:33;23.00;;;10.60;;
83732;SDS011;73710;49.968;8.338;2024-01-30T08:32:58;18.13;;;11.35;;
83732;SDS011;73710;49.968;8.338;2024-01-30T08:35:24;24.73;;;12.93;;
83732;SDS011;73710;49.968;8.338;2024-01-30T08:37:49;24.20;;;10.48;;
83732;SDS011;73710;49.968;8.338;2024-01-30T08:40:15;22.10;;;12.25;;
83732;SDS011;73710;49.968;8.338;2024-01-30T08:42:40;28.23;;;11.57;;
83732;SDS011;73710;49.968;8.338;2024-01-30T08:45:05;19.80;;;10.15;;
83732;SDS011;73710;49.968;8.338;2024-01-30T08:47:31;21.45;;;12.77;;
83732;SDS011;73710;49.968;8.338;2024-01-30T08:49:58;24.60;;;11.70;;
83732;SDS011;73710;49.968;8.338;2024-01-30T08:52:23;22.85;;;11.18;;
83732;SDS011;73710;49.968;8.338;2024-01-30T08:54:49;16.65;;;11.48;;
83732;SDS011;73710;49.968;8.338;2024-01-30T08:57:14;19.17;;;9.80;;
83732;SDS011;73710;49.968;8.338;2024-01-30T08:59:40;19.10;;;10.68;;
83732;SDS011;73710;49.968;8.338;2024-01-30T09:02:05;20.92;;;12.23;;
83732;SDS011;73710;49.968;8.338;2024-01-30T09:04:31;17.92;;;11.60;;
83732;SDS011;73710;49.968;8.338;2024-01-30T09:06:56;23.40;;;10.38;;
83732;SDS011;73710;49.968;8.338;2024-01-30T09:09:21;18.33;;;10.13;;
83732;SDS011;73710;49.968;8.338;2024-01-30T09:11:47;15.88;;;9.73;;
83732;SDS011;73710;49.968;8.338;2024-01-30T09:14:12;17.40;;;9.98;;
83732;SDS011;73710;49.968;8.338;2024-01-30T09:16:38;19.38;;;10.30;;
83732;SDS011;73710;49.968;8.338;2024-01-30T09:19:03;20.70;;;12.43;;
83732;SDS011;73710;49.968;8.338;2024-01-30T09:21:29;24.50;;;10.77;;
83732;SDS011;73710;49.968;8.338;2024-01-30T09:23:54;18.73;;;9.15;;
83732;SDS011;73710;49.968;8.338;2024-01-30T09:26:20;19.08;;;10.82;;
83732;SDS011;73710;49.968;8.338;2024-01-30T09:28:45;19.73;;;11.70;;
83732;SDS011;73710;49.968;8.338;2024-01-30T09:31:14;20.73;;;12.60;;
83732;SDS011;73710;49.968;8.338;2024-01-30T09:33:39;22.50;;;12.50;;
83732;SDS011;73710;49.968;8.338;2024-01-30T09:36:05;21.85;;;11.77;;
83732;SDS011;73710;49.968;8.338;2024-01-30T09:38:31;24.98;;;10.35;;
83732;SDS011;73710;49.968;8.338;2024-01-30T09:40:56;23.17;;;12.88;;
83732;SDS011;73710;49.968;8.338;2024-01-30T09:43:28;21.85;;;12.73;;
83732;SDS011;73710;49.968;8.338;2024-01-30T09:45:58;21.73;;;11.75;;
83732;SDS011;73710;49.968;8.338;2024-01-30T09:48:25;21.20;;;12.65;;
83732;SDS011;73710;49.968;8.338;2024-01-30T09:50:52;19.33;;;11.45;;
83732;SDS011;73710;49.968;8.338;2024-01-30T09:53:17;17.35;;;11.35;;
83732;SDS011;73710;49.968;8.338;2024-01-30T09:55:43;19.25;;;10.43;;
83732;SDS011;73710;49.968;8.338;2024-01-30T09:58:09;25.05;;;10.75;;
83732;SDS011;73710;49.968;8.338;2024-01-30T10:00:34;15.63;;;10.82;;
83732;SDS011;73710;49.968;8.338;2024-01-30T10:03:00;18.95;;;8.77;;
83732;SDS011;73710;49.968;8.338;2024-01-30T10:05:26;18.63;;;11.02;;
83732;SDS011;73710;49.968;8.338;2024-01-30T10:07:56;19.25;;;11.20;;
83732;SDS011;73710;49.968;8.338;2024-01-30T10:10:22;17.45;;;9.88;;
83732;SDS011;73710;49.968;8.338;2024-01-30T10:12:48;23.75;;;11.00;;
83732;SDS011;73710;49.968;8.338;2024-01-30T10:15:14;14.27;;;10.32;;
83732;SDS011;73710;49.968;8.338;2024-01-30T10:17:39;22.27;;;11.17;;
83732;SDS011;73710;49.968;8.338;2024-01-30T10:20:05;16.27;;;9.65;;
83732;SDS011;73710;49.968;8.338;2024-01-30T10:22:30;18.67;;;11.93;;
83732;SDS011;73710;49.968;8.338;2024-01-30T10:24:56;17.45;;;10.85;;
83732;SDS011;73710;49.968;8.338;2024-01-30T10:27:27;22.30;;;12.23;;
83732;SDS011;73710;49.968;8.338;2024-01-30T10:29:54;21.90;;;11.50;;
83732;SDS011;73710;49.968;8.338;2024-01-30T10:32:20;22.27;;;12.45;;
83732;SDS011;73710;49.968;8.338;2024-01-30T10:34:46;20.15;;;11.45;;
83732;SDS011;73710;49.968;8.338;2024-01-30T10:37:11;17.05;;;10.35;;
83732;SDS011;73710;49.968;8.338;2024-01-30T10:39:40;16.83;;;11.73;;
83732;SDS011;73710;49.968;8.338;2024-01-30T10:42:07;17.95;;;10.30;;
83732;SDS011;73710;49.968;8.338;2024-01-30T10:44:39;18.50;;;10.82;;
83732;SDS011;73710;49.968;8.338;2024-01-30T10:47:26;15.63;;;10.10;;
83732;SDS011;73710;49.968;8.338;2024-01-30T10:49:53;15.55;;;11.25;;
83732;SDS011;73710;49.968;8.338;2024-01-30T10:52:19;18.70;;;12.88;;
83732;SDS011;73710;49.968;8.338;2024-01-30T10:54:45;21.52;;;11.95;;
83732;SDS011;73710;49.968;8.338;2024-01-30T10:57:12;20.02;;;11.82;;
83732;SDS011;73710;49.968;8.338;2024-01-30T10:59:40;19.13;;;11.65;;
83732;SDS011;73710;49.968;8.338;2024-01-30T11:02:07;18.48;;;10.63;;
83732;SDS011;73710;49.968;8.338;2024-01-30T11:04:38;22.05;;;11.73;;
83732;SDS011;73710;49.968;8.338;2024-01-30T11:07:15;19.80;;;10.90;;
83732;SDS011;73710;49.968;8.338;2024-01-30T11:09:48;16.33;;;10.45;;
83732;SDS011;73710;49.968;8.338;2024-01-30T11:12:14;20.23;;;10.32;;
83732;SDS011;73710;49.968;8.338;2024-01-30T11:14:40;20.00;;;11.88;;
83732;SDS011;73710;49.968;8.338;2024-01-30T11:17:05;19.65;;;9.57;;
83732;SDS011;73710;49.968;8.338;2024-01-30T11:19:31;18.25;;;10.10;;
83732;SDS011;73710;49.968;8.338;2024-01-30T11:21:57;13.75;;;10.00;;
83732;SDS011;73710;49.968;8.338;2024-01-30T11:24:23;13.65;;;9.63;;
83732;SDS011;73710;49.968;8.338;2024-01-30T11:26:49;15.77;;;9.63;;
83732;SDS011;73710;49.968;8.338;2024-01-30T11:29:18;15.38;;;10.60;;
83732;SDS011;73710;49.968;8.338;2024-01-30T11:31:53;14.13;;;8.82;;
83732;SDS011;73710;49.968;8.338;2024-01-30T11:34:20;18.10;;;11.00;;
83732;SDS011;73710;49.968;8.338;2024-01-30T11:36:50;15.25;;;8.88;;
83732;SDS011;73710;49.968;8.338;2024-01-30T11:39:23;16.75;;;10.43;;
83732;SDS011;73710;49.968;8.338;2024-01-30T11:41:50;15.13;;;9.15;;
83732;SDS011;73710;49.968;8.338;2024-01-30T11:44:17;17.65;;;10.40;;
83732;SDS011;73710;49.968;8.338;2024-01-30T11:46:42;12.93;;;8.73;;
83732;SDS011;73710;49.968;8.338;2024-01-30T11:49:08;15.75;;;10.60;;
83732;SDS011;73710;49.968;8.338;2024-01-30T11:51:33;13.98;;;10.02;;
83732;SDS011;73710;49.968;8.338;2024-01-30T11:53:59;14.80;;;9.15;;
83732;SDS011;73710;49.968;8.338;2024-01-30T11:56:24;14.20;;;9.05;;
83732;SDS011;73710;49.968;8.338;2024-01-30T11:58:51;12.07;;;7.95;;
83732;SDS011;73710;49.968;8.338;2024-01-30T12:01:17;12.93;;;8.57;;
83732;SDS011;73710;49.968;8.338;2024-01-30T12:03:44;19.65;;;9.93;;
83732;SDS011;73710;49.968;8.338;2024-01-30T12:06:15;15.70;;;9.15;;
83732;SDS011;73710;49.968;8.338;2024-01-30T12:08:40;20.35;;;11.02;;
83732;SDS011;73710;49.968;8.338;2024-01-30T12:11:06;15.98;;;10.15;;
83732;SDS011;73710;49.968;8.338;2024-01-30T12:13:32;13.43;;;8.60;;
83732;SDS011;73710;49.968;8.338;2024-01-30T12:15:57;15.95;;;9.27;;
83732;SDS011;73710;49.968;8.338;2024-01-30T12:18:23;11.70;;;8.90;;
83732;SDS011;73710;49.968;8.338;2024-01-30T12:21:00;17.57;;;9.53;;
83732;SDS011;73710;49.968;8.338;2024-01-30T12:23:29;16.80;;;10.93;;
83732;SDS011;73710;49.968;8.338;2024-01-30T12:25:54;15.07;;;9.52;;
83732;SDS011;73710;49.968;8.338;2024-01-30T12:28:20;14.88;;;8.40;;
83732;SDS011;73710;49.968;8.338;2024-01-30T12:30:46;15.35;;;9.00;;
83732;SDS011;73710;49.968;8.338;2024-01-30T12:33:17;14.45;;;9.00;;
83732;SDS011;73710;49.968;8.338;2024-01-30T12:35:46;13.98;;;8.90;;
83732;SDS011;73710;49.968;8.338;2024-01-30T12:38:15;14.65;;;8.90;;
83732;SDS011;73710;49.968;8.338;2024-01-30T12:40:40;14.40;;;8.75;;
83732;SDS011;73710;49.968;8.338;2024-01-30T12:43:06;15.30;;;8.82;;
83732;SDS011;73710;49.968;8.338;2024-01-30T12:45:31;14.88;;;8.90;;
83732;SDS011;73710;49.968;8.338;2024-01-30T12:47:57;16.60;;;10.20;;
83732;SDS011;73710;49.968;8.338;2024-01-30T12:50:23;14.88;;;9.40;;
83732;SDS011;73710;49.968;8.338;2024-01-30T12:52:49;17.92;;;9.23;;
83732;SDS011;73710;49.968;8.338;2024-01-30T12:55:14;16.80;;;10.20;;
83732;SDS011;73710;49.968;8.338;2024-01-30T12:57:39;14.30;;;8.63;;
83732;SDS011;73710;49.968;8.338;2024-01-30T13:00:05;15.63;;;9.23;;
83732;SDS011;73710;49.968;8.338;2024-01-30T13:02:33;13.45;;;8.00;;
83732;SDS011;73710;49.968;8.338;2024-01-30T13:05:02;17.73;;;9.85;;
83732;SDS011;73710;49.968;8.338;2024-01-30T13:07:29;13.93;;;8.60;;
83732;SDS011;73710;49.968;8.338;2024-01-30T13:09:54;17.92;;;8.82;;
83732;SDS011;73710;49.968;8.338;2024-01-30T13:12:19;12.50;;;7.72;;
83732;SDS011;73710;49.968;8.338;2024-01-30T13:14:45;13.82;;;8.70;;
83732;SDS011;73710;49.968;8.338;2024-01-30T13:17:10;13.07;;;8.47;;
83732;SDS011;73710;49.968;8.338;2024-01-30T13:19:36;19.40;;;9.52;;
83732;SDS011;73710;49.968;8.338;2024-01-30T13:22:01;12.82;;;8.57;;
83732;SDS011;73710;49.968;8.338;2024-01-30T13:24:26;14.57;;;9.07;;
83732;SDS011;73710;49.968;8.338;2024-01-30T13:26:52;15.40;;;8.10;;
83732;SDS011;73710;49.968;8.338;2024-01-30T13:29:18;14.38;;;9.60;;
83732;SDS011;73710;49.968;8.338;2024-01-30T13:31:43;15.02;;;9.73;;
83732;SDS011;73710;49.968;8.338;2024-01-30T13:34:11;16.15;;;9.63;;
83732;SDS011;73710;49.968;8.338;2024-01-30T13:36:37;13.13;;;9.20;;
83732;SDS011;73710;49.968;8.338;2024-01-30T13:39:03;17.05;;;10.00;;
83732;SDS011;73710;49.968;8.338;2024-01-30T13:41:30;14.20;;;10.18;;
83732;SDS011;73710;49.968;8.338;2024-01-30T13:43:55;16.27;;;10.30;;
83732;SDS011;73710;49.968;8.338;2024-01-30T13:46:21;19.17;;;9.07;;
83732;SDS011;73710;49.968;8.338;2024-01-30T13:48:46;18.05;;;10.40;;
83732;SDS011;73710;49.968;8.338;2024-01-30T13:51:12;13.50;;;9.38;;
83732;SDS011;73710;49.968;8.338;2024-01-30T13:53:38;15.98;;;8.88;;
83732;SDS011;73710;49.968;8.338;2024-01-30T13:56:03;14.18;;;9.15;;
83732;SDS011;73710;49.968;8.338;2024-01-30T13:58:29;13.85;;;8.50;;
83732;SDS011;73710;49.968;8.338;2024-01-30T14:00:55;13.38;;;8.70;;
83732;SDS011;73710;49.968;8.338;2024-01-30T14:03:21;14.43;;;8.73;;
83732;SDS011;73710;49.968;8.338;2024-01-30T14:05:46;16.35;;;9.10;;
83732;SDS011;73710;49.968;8.338;2024-01-30T14:08:11;12.43;;;8.47;;
83732;SDS011;73710;49.968;8.338;2024-01-30T14:10:37;14.02;;;9.10;;
83732;SDS011;73710;49.968;8.338;2024-01-30T14:13:02;12.57;;;8.88;;
83732;SDS011;73710;49.968;8.338;2024-01-30T14:15:28;15.15;;;9.30;;
83732;SDS011;73710;49.968;8.338;2024-01-30T14:17:53;12.07;;;8.40;;
83732;SDS011;73710;49.968;8.338;2024-01-30T14:20:19;14.93;;;9.77;;
83732;SDS011;73710;49.968;8.338;2024-01-30T14:22:44;17.15;;;9.82;;
83732;SDS011;73710;49.968;8.338;2024-01-30T14:25:10;16.27;;;9.77;;
83732;SDS011;73710;49.968;8.338;2024-01-30T14:27:35;21.20;;;9.55;;
83732;SDS011;73710;49.968;8.338;2024-01-30T14:30:01;13.27;;;8.38;;
83732;SDS011;73710;49.968;8.338;2024-01-30T14:32:28;13.68;;;9.10;;
83732;SDS011;73710;49.968;8.338;2024-01-30T14:34:53;18.25;;;10.32;;
83732;SDS011;73710;49.968;8.338;2024-01-30T14:37:20;15.40;;;9.80;;
83732;SDS011;73710;49.968;8.338;2024-01-30T14:39:46;15.25;;;8.95;;
83732;SDS011;73710;49.968;8.338;2024-01-30T14:42:13;14.65;;;9.90;;
83732;SDS011;73710;49.968;8.338;2024-01-30T14:44:38;16.80;;;9.07;;
83732;SDS011;73710;49.968;8.338;2024-01-30T14:47:04;20.23;;;8.55;;
83732;SDS011;73710;49.968;8.338;2024-01-30T14:49:30;14.93;;;8.80;;
83732;SDS011;73710;49.968;8.338;2024-01-30T14:51:56;16.45;;;9.20;;
83732;SDS011;73710;49.968;8.338;2024-01-30T14:54:23;17.27;;;9.80;;
83732;SDS011;73710;49.968;8.338;2024-01-30T14:56:48;17.92;;;9.10;;
83732;SDS011;73710;49.968;8.338;2024-01-30T14:59:14;12.93;;;9.55;;
83732;SDS011;73710;49.968;8.338;2024-01-30T15:01:39;16.00;;;9.23;;
83732;SDS011;73710;49.968;8.338;2024-01-30T15:04:04;13.20;;;8.90;;
83732;SDS011;73710;49.968;8.338;2024-01-30T15:06:30;14.70;;;8.60;;
83732;SDS011;73710;49.968;8.338;2024-01-30T15:08:55;13.35;;;8.43;;
83732;SDS011;73710;49.968;8.338;2024-01-30T15:11:21;15.20;;;8.57;;
83732;SDS011;73710;49.968;8.338;2024-01-30T15:13:46;18.85;;;9.85;;
83732;SDS011;73710;49.968;8.338;2024-01-30T15:16:12;15.77;;;9.30;;
83732;SDS011;73710;49.968;8.338;2024-01-30T15:18:37;17.23;;;10.55;;
83732;SDS011;73710;49.968;8.338;2024-01-30T15:21:02;15.32;;;9.30;;
83732;SDS011;73710;49.968;8.338;2024-01-30T15:23:28;15.43;;;9.25;;
83732;SDS011;73710;49.968;8.338;2024-01-30T15:25:53;15.80;;;8.63;;
83732;SDS011;73710;49.968;8.338;2024-01-30T15:28:19;14.43;;;8.77;;
83732;SDS011;73710;49.968;8.338;2024-01-30T15:30:50;17.15;;;9.02;;
83732;SDS011;73710;49.968;8.338;2024-01-30T15:33:16;16.45;;;8.85;;
83732;SDS011;73710;49.968;8.338;2024-01-30T15:35:41;14.27;;;8.77;;
83732;SDS011;73710;49.968;8.338;2024-01-30T15:38:06;23.47;;;10.80;;
83732;SDS011;73710;49.968;8.338;2024-01-30T15:40:34;21.77;;;9.98;;
83732;SDS011;73710;49.968;8.338;2024-01-30T15:43:00;15.43;;;9.57;;
83732;SDS011;73710;49.968;8.338;2024-01-30T15:45:25;18.50;;;10.13;;
83732;SDS011;73710;49.968;8.338;2024-01-30T15:47:50;19.77;;;11.27;;
83732;SDS011;73710;49.968;8.338;2024-01-30T15:50:16;27.98;;;10.40;;
83732;SDS011;73710;49.968;8.338;2024-01-30T15:52:42;16.23;;;9.75;;
83732;SDS011;73710;49.968;8.338;2024-01-30T15:55:07;21.77;;;11.67;;
83732;SDS011;73710;49.968;8.338;2024-01-30T15:57:32;17.10;;;11.80;;
83732;SDS011;73710;49.968;8.338;2024-01-30T15:59:58;24.50;;;13.77;;
83732;SDS011;73710;49.968;8.338;2024-01-30T16:02:23;19.58;;;11.00;;
83732;SDS011;73710;49.968;8.338;2024-01-30T16:04:48;15.80;;;10.47;;
83732;SDS011;73710;49.968;8.338;2024-01-30T16:07:14;14.95;;;9.60;;
83732;SDS011;73710;49.968;8.338;2024-01-30T16:09:40;21.15;;;11.52;;
83732;SDS011;73710;49.968;8.338;2024-01-30T16:12:06;19.92;;;10.43;;
83732;SDS011;73710;49.968;8.338;2024-01-30T16:14:31;14.75;;;10.30;;
83732;SDS011;73710;49.968;8.338;2024-01-30T16:16:58;20.70;;;11.50;;
83732;SDS011;73710;49.968;8.338;2024-01-30T16:19:24;17.00;;;9.93;;
83732;SDS011;73710;49.968;8.338;2024-01-30T16:21:49;17.35;;;11.15;;
83732;SDS011;73710;49.968;8.338;2024-01-30T16:24:15;20.73;;;10.97;;
83732;SDS011;73710;49.968;8.338;2024-01-30T16:26:40;22.98;;;12.00;;
83732;SDS011;73710;49.968;8.338;2024-01-30T16:29:05;18.07;;;11.53;;
83732;SDS011;73710;49.968;8.338;2024-01-30T16:31:31;18.25;;;10.57;;
83732;SDS011;73710;49.968;8.338;2024-01-30T16:33:57;18.08;;;10.93;;
83732;SDS011;73710;49.968;8.338;2024-01-30T16:36:25;17.88;;;10.43;;
83732;SDS011;73710;49.968;8.338;2024-01-30T16:38:50;18.10;;;10.35;;
83732;SDS011;73710;49.968;8.338;2024-01-30T16:41:16;20.50;;;10.63;;
83732;SDS011;73710;49.968;8.338;2024-01-30T16:43:41;23.77;;;10.83;;
83732;SDS011;73710;49.968;8.338;2024-01-30T16:46:07;20.58;;;11.73;;
83732;SDS011;73710;49.968;8.338;2024-01-30T16:48:32;21.92;;;11.20;;
83732;SDS011;73710;49.968;8.338;2024-01-30T16:50:57;16.50;;;9.38;;
83732;SDS011;73710;49.968;8.338;2024-01-30T16:53:23;16.63;;;10.30;;
83732;SDS011;73710;49.968;8.338;2024-01-30T16:55:48;17.45;;;10.60;;
83732;SDS011;73710;49.968;8.338;2024-01-30T16:58:13;15.27;;;9.23;;
83732;SDS011;73710;49.968;8.338;2024-01-30T17:00:39;18.23;;;10.38;;
83732;SDS011;73710;49.968;8.338;2024-01-30T17:03:04;20.20;;;12.00;;
83732;SDS011;73710;49.968;8.338;2024-01-30T17:05:30;16.85;;;10.40;;
83732;SDS011;73710;49.968;8.338;2024-01-30T17:07:56;24.58;;;11.57;;
83732;SDS011;73710;49.968;8.338;2024-01-30T17:10:23;19.23;;;10.82;;
83732;SDS011;73710;49.968;8.338;2024-01-30T17:12:49;21.27;;;10.35;;
83732;SDS011;73710;49.968;8.338;2024-01-30T17:15:15;18.98;;;10.48;;
83732;SDS011;73710;49.968;8.338;2024-01-30T17:17:41;18.85;;;10.30;;
83732;SDS011;73710;49.968;8.338;2024-01-30T17:20:07;20.85;;;10.45;;
83732;SDS011;73710;49.968;8.338;2024-01-30T17:22:32;17.30;;;10.90;;
83732;SDS011;73710;49.968;8.338;2024-01-30T17:24:58;16.77;;;9.80;;
83732;SDS011;73710;49.968;8.338;2024-01-30T17:27:23;20.23;;;10.25;;
83732;SDS011;73710;49.968;8.338;2024-01-30T17:29:49;20.90;;;10.77;;
83732;SDS011;73710;49.968;8.338;2024-01-30T17:32:14;18.02;;;10.38;;
83732;SDS011;73710;49.968;8.338;2024-01-30T17:34:40;18.10;;;11.35;;
83732;SDS011;73710;49.968;8.338;2024-01-30T17:37:05;15.00;;;9.82;;
83732;SDS011;73710;49.968;8.338;2024-01-30T17:39:30;23.47;;;10.57;;
83732;SDS011;73710;49.968;8.338;2024-01-30T17:41:56;20.02;;;11.45;;
83732;SDS011;73710;49.968;8.338;2024-01-30T17:44:22;20.70;;;9.93;;
83732;SDS011;73710;49.968;8.338;2024-01-30T17:46:48;18.10;;;10.57;;
83732;SDS011;73710;49.968;8.338;2024-01-30T17:49:13;28.33;;;12.77;;
83732;SDS011;73710;49.968;8.338;2024-01-30T17:51:39;20.80;;;11.03;;
83732;SDS011;73710;49.968;8.338;2024-01-30T17:54:05;26.65;;;12.52;;
83732;SDS011;73710;49.968;8.338;2024-01-30T17:56:30;17.17;;;10.40;;
83732;SDS011;73710;49.968;8.338;2024-01-30T17:58:56;21.67;;;11.40;;
83732;SDS011;73710;49.968;8.338;2024-01-30T18:01:21;20.63;;;10.52;;
83732;SDS011;73710;49.968;8.338;2024-01-30T18:03:47;18.50;;;11.18;;
83732;SDS011;73710;49.968;8.338;2024-01-30T18:06:13;23.75;;;12.02;;
83732;SDS011;73710;49.968;8.338;2024-01-30T18:08:40;24.98;;;12.35;;
83732;SDS011;73710;49.968;8.338;2024-01-30T18:11:05;26.33;;;11.73;;
83732;SDS011;73710;49.968;8.338;2024-01-30T18:13:31;23.13;;;12.00;;
83732;SDS011;73710;49.968;8.338;2024-01-30T18:15:56;17.60;;;10.60;;
83732;SDS011;73710;49.968;8.338;2024-01-30T18:18:21;22.40;;;12.77;;
83732;SDS011;73710;49.968;8.338;2024-01-30T18:20:49;22.23;;;12.70;;
83732;SDS011;73710;49.968;8.338;2024-01-30T18:23:15;27.50;;;12.57;;
83732;SDS011;73710;49.968;8.338;2024-01-30T18:25:40;24.13;;;11.55;;
83732;SDS011;73710;49.968;8.338;2024-01-30T18:28:06;23.73;;;12.75;;
83732;SDS011;73710;49.968;8.338;2024-01-30T18:30:31;18.88;;;10.52;;
83732;SDS011;73710;49.968;8.338;2024-01-30T18:32:57;18.35;;;11.57;;
83732;SDS011;73710;49.968;8.338;2024-01-30T18:35:22;18.00;;;10.57;;
83732;SDS011;73710;49.968;8.338;2024-01-30T18:37:47;21.65;;;11.18;;
83732;SDS011;73710;49.968;8.338;2024-01-30T18:40:13;22.80;;;11.67;;
83732;SDS011;73710;49.968;8.338;2024-01-30T18:42:38;21.77;;;11.32;;
83732;SDS011;73710;49.968;8.338;2024-01-30T18:45:04;28.30;;;11.68;;
83732;SDS011;73710;49.968;8.338;2024-01-30T18:47:30;19.52;;;10.25;;
83732;SDS011;73710;49.968;8.338;2024-01-30T18:49:56;22.58;;;11.70;;
83732;SDS011;73710;49.968;8.338;2024-01-30T18:52:21;21.63;;;12.95;;
83732;SDS011;73710;49.968;8.338;2024-01-30T18:54:46;23.48;;;10.88;;
83732;SDS011;73710;49.968;8.338;2024-01-30T18:57:12;17.00;;;11.55;;
83732;SDS011;73710;49.968;8.338;2024-01-30T18:59:37;17.38;;;10.48;;
83732;SDS011;73710;49.968;8.338;2024-01-30T19:02:03;21.48;;;11.57;;
83732;SDS011;73710;49.968;8.338;2024-01-30T19:04:28;22.15;;;10.85;;
83732;SDS011;73710;49.968;8.338;2024-01-30T19:06:54;17.27;;;10.40;;
83732;SDS011;73710;49.968;8.338;2024-01-30T19:09:19;16.25;;;10.15;;
83732;SDS011;73710;49.968;8.338;2024-01-30T19:11:46;20.60;;;11.27;;
83732;SDS011;73710;49.968;8.338;2024-01-30T19:14:12;16.75;;;9.27;;
83732;SDS011;73710;49.968;8.338;2024-01-30T19:16:37;18.55;;;10.90;;
83732;SDS011;73710;49.968;8.338;2024-01-30T19:19:03;20.50;;;12.83;;
83732;SDS011;73710;49.968;8.338;2024-01-30T19:21:31;17.80;;;11.38;;
83732;SDS011;73710;49.968;8.338;2024-01-30T19:23:57;18.10;;;11.63;;
83732;SDS011;73710;49.968;8.338;2024-01-30T19:26:25;20.58;;;11.95;;
83732;SDS011;73710;49.968;8.338;2024-01-30T19:28:50;19.13;;;11.20;;
83732;SDS011;73710;49.968;8.338;2024-01-30T19:31:15;19.37;;;12.27;;
83732;SDS011;73710;49.968;8.338;2024-01-30T19:33:41;20.58;;;10.50;;